BEARDSLEY LAKE (BRD)

Elevation: 3398' · STANISLAUS R basin · Operator: US Bureau of Reclamation


Station comments:

04/14/2015Reservoir capacity updated from 77,600 to 97,800 from information found at http://ce-npdp-serv2.stanford.edu/DamDirectory/DamDetail.jsp?npdp_id=CA00263


Provisional data, subject to change.
Query executed Sunday at 0:26:26   clock

Select a sensor type for a plot of data.
Note: Reservoir Flows are daily averages.

Earlier

Date STORAGE    RES CHG    OUTFLOW    PPT INC   
 AF   AF   CFS   INCHES  
03/20/2015 30446 71 57 0.00
03/21/2015 30533 87 60 0.00
03/22/2015 30637 104 57 0.00
03/23/2015 30728 91 57 0.20
03/24/2015 30819 91 57 0.00
03/25/2015 30900 81 55 0.00
03/26/2015 30986 86 55 0.00
03/27/2015 31082 96 55 0.00
03/28/2015 31115 33 59 0.00
03/29/2015 31168 53 63 0.00
03/30/2015 31235 67 64 0.00
03/31/2015 31331 96 69 0.00
04/01/2015 31389 58 71 0.00
04/02/2015 31467 78 65 0.00
04/03/2015 31524 57 64 0.00
04/04/2015 31568 44 64 0.00
04/05/2015 31649 81 64 0.00
04/06/2015 31740 91 63 0.32
04/07/2015 31857 117 77 0.29
04/08/2015 32011 154 28 0.83
04/09/2015 32078 67 68 0.00
04/10/2015 32180 102 66 0.00
04/11/2015 32263 83 65 0.00
04/12/2015 32414 -- 65 0.00
04/13/2015 32535 121 75 0.00
04/14/2015 32666 131 63 0.00
04/15/2015 32725 59 61 0.00
04/16/2015 32788 63 59 0.00
04/17/2015 32856 68 63 0.00
04/18/2015 -- -- -- --
04/19/2015 -- -- -- --

Later | Latest

Warning! This data is preliminary and subject to revision.

Show BRD Map | Plot BRD Data | 1 Month BRD Data | Real-Time BRD Data | BRD Info